Terminal Aerodrome Forecast
Issued by NWS

Home | Current Version | Previous Version | Text Only | Print | Product List | Glossary On
Versions: 1 2 3 4 5 6 7 8 9 10 11 12 13 14 15 16 17 18 19 20
000
FTUS43 KAPX 211400 AAB
TAFAPN
TAF AMD
KAPN 211407Z 2114/2212 02012G21KT P6SM FEW029
     FM211500 02012G21KT P6SM BKN029
     FM220000 03006KT P6SM SCT025
     FM220500 05005KT P6SM BKN020=

USA.gov is the U.S. government's official web portal to all federal, state and local government web resources and services.